KCRE/CRE METAR and TAF weather

Enter ICAO airport designator
Station Type Date Time Source
KCRE METAR 2020/07/02 19:29 UTC NOAA

KCRE 021929Z 10006KT 10SM FEW018 FEW033 SCT075 26/23 A2987 RMK AO1 LTG DSNT ALQDS RAE05 P0000 T02610233


Station Type Date Time Source
KCRE Decoded METAR 2020/07/02 19:29 UTC NOAA

N. MYRTLE BCH.GRAND STRAND, SC, United States (KCRE) 33-49N 078-43W 10M
Jul 02, 2020 - 03:29 PM EDT / 2020.07.02 1929 UTC
Wind: from the E (100 degrees) at 7 MPH (6 KT):0
Visibility: 10 mile(s):0
Sky conditions: partly cloudy
Weather: Lightning observed
Precipitation last hour: A trace
Temperature: 79.0 F (26.1 C)
Dew Point: 73.9 F (23.3 C)
Relative Humidity: 84%
Pressure (altimeter): 29.87 in. Hg (1011 hPa)
ob: KCRE 021929Z 10006KT 10SM FEW018 FEW033 SCT075 26/23 A2987 RMK AO1 LTG DSNT ALQDS RAE05 P0000 T02610233
cycle: 19

Station Type Date Time Source
KCRE TAF 2020/07/02 18:22 UTC NOAA

TAF KCRE 021720Z 0218/0318 17008KT P6SM VCSH SCT040 SCT120
TEMPO 0218/0221 VRB10KT 6SM -TSRA BKN040CB
FM030000 VRB05KT P6SM SCT050
FM030800 00000KT 6SM BR SCT100
TEMPO 0308/0311 3SM BR BKN010
FM031300 05005KT P6SM FEW100

Example: see airport list